createdAt,value
2018-09-22T10:03:16.181Z,24.23
2018-09-22T10:05:44.483Z,24.43
2018-09-22T10:08:12.602Z,24.43
2018-09-22T10:10:40.775Z,24.48
2018-09-22T10:13:08.946Z,24.49
2018-09-22T10:15:36.690Z,24.67
2018-09-22T10:18:04.589Z,24.71
2018-09-22T10:20:32.852Z,24.77
2018-09-22T10:23:00.718Z,24.83
2018-09-22T10:25:28.451Z,24.95
2018-09-22T10:27:56.227Z,25.00
2018-09-22T10:30:24.316Z,24.97
2018-09-22T10:32:52.485Z,24.95
2018-09-22T10:35:20.350Z,25.07
2018-09-22T10:37:48.080Z,25.04
2018-09-22T10:40:16.149Z,25.27
2018-09-22T10:42:44.358Z,25.29
2018-09-22T10:45:12.422Z,25.27
2018-09-22T10:47:40.577Z,25.22
2018-09-22T10:50:08.513Z,25.20
2018-09-22T10:52:36.485Z,25.32
2018-09-22T10:55:04.275Z,25.46
2018-09-22T10:57:32.049Z,25.54
2018-09-22T10:59:59.778Z,25.45
2018-09-22T11:02:27.526Z,25.45
2018-09-22T11:04:55.293Z,25.47
2018-09-22T11:07:23.055Z,25.58
2018-09-22T11:09:50.793Z,25.58
2018-09-22T11:12:18.538Z,25.79
2018-09-22T11:14:46.253Z,25.81
2018-09-22T11:17:13.974Z,25.87
2018-09-22T11:19:41.676Z,25.87
2018-09-22T11:22:09.426Z,25.84
2018-09-22T11:24:37.135Z,25.84
2018-09-22T11:27:04.992Z,25.82
2018-09-22T11:29:32.729Z,25.89
2018-09-22T11:32:00.438Z,25.89
2018-09-22T11:34:28.209Z,25.87
2018-09-22T11:36:55.934Z,26.04
2018-09-22T11:39:23.642Z,26.14
2018-09-22T11:41:51.358Z,26.05
2018-09-22T11:44:19.165Z,25.91
2018-09-22T11:46:46.894Z,25.95
2018-09-22T11:49:14.597Z,25.99
2018-09-22T11:51:42.324Z,25.91
2018-09-22T11:54:10.050Z,25.82
2018-09-22T11:56:37.775Z,25.88
2018-09-22T11:59:05.510Z,25.89
2018-09-22T12:01:33.253Z,26.15
2018-09-22T12:04:00.988Z,26.24
2018-09-22T12:06:28.741Z,26.32
2018-09-22T12:08:56.472Z,26.43
2018-09-22T12:11:24.192Z,26.50
2018-09-22T12:13:51.923Z,26.45
2018-09-22T12:16:19.648Z,26.13
2018-09-22T12:18:47.394Z,26.02
2018-09-22T12:21:15.152Z,26.11
2018-09-22T12:23:42.911Z,26.19
2018-09-22T12:26:10.642Z,26.21
2018-09-22T12:28:38.369Z,26.22
2018-09-22T12:31:06.106Z,26.28
2018-09-22T12:33:33.877Z,26.19
2018-09-22T12:36:01.717Z,26.13
2018-09-22T12:38:29.434Z,26.22
2018-09-22T12:40:57.155Z,26.13
2018-09-22T12:43:24.874Z,26.06
2018-09-22T12:45:52.621Z,26.06
2018-09-22T12:48:20.334Z,26.08
2018-09-22T12:50:48.094Z,26.13
2018-09-22T12:53:15.825Z,26.09
2018-09-22T12:55:43.583Z,26.25
2018-09-22T12:58:11.330Z,26.43
2018-09-22T13:00:39.093Z,26.56
2018-09-22T13:03:06.866Z,26.36
2018-09-22T13:05:34.598Z,26.44
2018-09-22T13:08:02.363Z,26.44
2018-09-22T13:10:30.092Z,26.49
2018-09-22T13:12:57.826Z,26.58
2018-09-22T13:15:25.570Z,26.75
2018-09-22T13:17:53.282Z,26.71
2018-09-22T13:20:21.104Z,26.46
2018-09-22T13:22:48.758Z,26.45
2018-09-22T13:25:16.483Z,26.44
2018-09-22T13:27:44.210Z,26.49
2018-09-22T13:30:11.949Z,26.52
2018-09-22T13:32:39.661Z,26.62
2018-09-22T13:35:07.713Z,26.47
2018-09-22T13:37:35.432Z,26.51
2018-09-22T13:40:03.223Z,26.38
2018-09-22T13:42:30.993Z,26.35
2018-09-22T13:44:58.742Z,26.45
2018-09-22T13:47:26.497Z,26.37
2018-09-22T13:49:54.219Z,26.34
2018-09-22T13:52:21.957Z,26.42
2018-09-22T13:54:49.689Z,26.41
2018-09-22T13:57:17.426Z,26.56
2018-09-22T13:59:45.156Z,26.71
2018-09-22T14:02:12.907Z,26.72
2018-09-22T14:04:40.629Z,26.82
2018-09-22T14:07:08.366Z,26.69
2018-09-22T14:09:36.089Z,26.61
2018-09-22T14:12:03.800Z,26.56
2018-09-22T14:14:31.550Z,26.45
2018-09-22T14:16:59.299Z,26.36
2018-09-22T14:19:27.018Z,26.38
2018-09-22T14:21:54.774Z,26.35
2018-09-22T14:24:22.573Z,26.28
2018-09-22T14:26:50.268Z,26.23
2018-09-22T14:29:18.076Z,26.36
2018-09-22T14:31:45.849Z,26.39
2018-09-22T14:34:13.597Z,26.34
2018-09-22T14:36:41.319Z,26.44
2018-09-22T14:39:09.081Z,26.51
2018-09-22T14:41:36.798Z,26.46
2018-09-22T14:44:04.518Z,26.42
2018-09-22T14:46:32.238Z,26.40
2018-09-22T14:48:59.964Z,26.31
2018-09-22T14:51:27.718Z,26.31
2018-09-22T14:53:55.434Z,26.21
2018-09-22T14:56:23.164Z,26.01
2018-09-22T14:58:50.930Z,26.07
2018-09-22T15:01:18.674Z,25.95
2018-09-22T15:03:46.461Z,25.84
2018-09-22T15:06:14.180Z,25.80
2018-09-22T15:08:41.893Z,25.87
2018-09-22T15:11:09.654Z,25.80
2018-09-22T15:13:37.390Z,25.74
2018-09-22T15:16:05.114Z,25.75
2018-09-22T15:18:32.841Z,25.81
2018-09-22T15:21:00.553Z,25.81
2018-09-22T15:23:28.265Z,25.89
2018-09-22T15:25:56.027Z,25.82
2018-09-22T15:28:23.777Z,25.74
2018-09-22T15:30:51.549Z,25.81
2018-09-22T15:33:19.294Z,25.59
2018-09-22T15:35:47.097Z,25.51
2018-09-22T15:38:14.826Z,25.49
2018-09-22T15:40:42.546Z,25.60
2018-09-22T15:43:10.292Z,25.67
2018-09-22T15:45:38.068Z,25.52
2018-09-22T15:48:05.858Z,25.28
2018-09-22T15:50:33.563Z,25.14
2018-09-22T15:53:01.322Z,25.16
2018-09-22T15:55:29.058Z,25.16
2018-09-22T15:57:56.751Z,25.20
2018-09-22T16:00:26.787Z,25.28
2018-09-22T16:02:54.498Z,25.45
2018-09-22T16:05:22.198Z,25.37
2018-09-22T16:07:49.966Z,25.23
2018-09-22T16:10:17.710Z,25.26
2018-09-22T16:12:45.431Z,25.25
2018-09-22T16:15:13.141Z,25.10
2018-09-22T16:17:40.857Z,25.02
2018-09-22T16:20:08.592Z,25.08
2018-09-22T16:22:36.294Z,24.96
2018-09-22T16:25:04.115Z,24.88
2018-09-22T16:27:31.823Z,25.07
2018-09-22T16:29:59.530Z,25.02
2018-09-22T16:32:27.609Z,24.98
2018-09-22T16:34:55.346Z,24.83
2018-09-22T16:37:23.095Z,24.89
2018-09-22T16:39:50.875Z,24.78
2018-09-22T16:42:18.611Z,24.84
2018-09-22T16:44:46.359Z,24.92
2018-09-22T16:47:14.087Z,24.72
2018-09-22T16:49:41.789Z,24.76
2018-09-22T16:52:09.503Z,24.78
2018-09-22T16:54:37.218Z,24.79
2018-09-22T16:57:04.987Z,24.65
2018-09-22T16:59:32.773Z,24.52
2018-09-22T17:03:03.675Z,24.46
2018-09-22T17:05:31.406Z,24.42
2018-09-22T17:07:59.145Z,24.55
2018-09-22T17:10:26.871Z,24.42
2018-09-22T17:12:54.631Z,24.23
2018-09-22T17:15:22.345Z,24.28
2018-09-22T17:17:50.146Z,24.14
2018-09-22T17:20:17.895Z,23.96
2018-09-22T17:22:45.608Z,23.77
2018-09-22T17:25:13.378Z,23.97
2018-09-22T17:27:41.147Z,24.05
2018-09-22T17:30:08.889Z,23.93
2018-09-22T17:32:36.621Z,23.72
2018-09-22T17:35:04.427Z,23.77
2018-09-22T17:37:32.130Z,23.54
2018-09-22T17:39:59.842Z,23.48
2018-09-22T17:42:27.582Z,23.10
2018-09-22T17:44:55.327Z,23.66
2018-09-22T17:47:23.063Z,23.30
2018-09-22T17:49:50.814Z,23.09
2018-09-22T17:52:18.556Z,23.12
2018-09-22T17:54:46.272Z,22.70
2018-09-22T17:57:14.005Z,22.75
2018-09-22T17:59:41.795Z,22.65
2018-09-22T18:02:09.712Z,22.52
2018-09-22T18:04:37.461Z,22.98
2018-09-22T18:07:05.320Z,23.02
2018-09-22T18:09:33.065Z,22.88
2018-09-22T18:12:00.823Z,22.92
2018-09-22T18:14:29.409Z,22.17
2018-09-22T18:16:57.149Z,21.94
2018-09-22T18:19:24.981Z,22.25
2018-09-22T18:21:52.937Z,22.51
2018-09-22T18:24:20.781Z,22.32
2018-09-22T18:26:48.502Z,22.19
2018-09-22T18:29:16.230Z,21.94
2018-09-22T18:31:43.994Z,21.80
2018-09-22T18:34:12.158Z,22.00
2018-09-22T18:36:39.933Z,22.14
2018-09-22T18:39:08.146Z,21.75
2018-09-22T18:41:36.141Z,21.60
2018-09-22T18:44:04.170Z,21.58
2018-09-22T18:46:31.933Z,21.85
2018-09-22T18:48:59.706Z,21.90
2018-09-22T18:51:27.425Z,21.70
2018-09-22T18:53:55.139Z,21.69
2018-09-22T18:56:22.893Z,21.27
2018-09-22T18:58:50.678Z,21.18
2018-09-22T19:01:18.632Z,21.19
2018-09-22T19:03:46.393Z,21.22
2018-09-22T19:06:14.146Z,21.07
2018-09-22T19:08:41.860Z,21.28
2018-09-22T19:11:09.666Z,21.54
2018-09-22T19:13:41.898Z,21.81
2018-09-22T19:16:15.033Z,21.66
2018-09-22T19:18:48.494Z,21.64
2018-09-22T19:21:23.437Z,21.14
2018-09-22T19:23:58.776Z,20.63
2018-09-22T19:26:31.929Z,20.88
2018-09-22T19:29:17.126Z,21.16
2018-09-22T19:31:50.442Z,21.27
2018-09-22T19:34:22.379Z,21.18
2018-09-22T19:36:55.242Z,20.51
2018-09-22T19:39:54.750Z,20.95
2018-09-22T19:42:30.003Z,20.95
2018-09-22T19:45:04.978Z,21.07
2018-09-22T19:47:56.850Z,21.25
2018-09-22T19:50:28.909Z,20.91
2018-09-22T19:52:57.719Z,20.82
2018-09-22T19:55:25.453Z,20.69
2018-09-22T19:57:53.215Z,20.51
2018-09-22T20:00:20.933Z,20.51
2018-09-22T20:02:48.668Z,20.53
2018-09-22T20:05:16.394Z,20.39
2018-09-22T20:07:44.102Z,20.25
2018-09-22T20:10:11.823Z,20.08
2018-09-22T20:12:39.582Z,20.24
2018-09-22T20:15:07.318Z,20.28
2018-09-22T20:17:35.095Z,20.49
2018-09-22T20:20:02.818Z,20.16
2018-09-22T20:22:30.573Z,19.75
2018-09-22T20:24:58.296Z,19.89
2018-09-22T20:27:26.047Z,20.14
2018-09-22T20:29:53.766Z,20.35
2018-09-22T20:32:21.578Z,20.10
2018-09-22T20:34:49.287Z,19.77
2018-09-22T20:37:17.020Z,19.96
2018-09-22T20:39:44.766Z,19.75
2018-09-22T20:42:12.482Z,20.12
2018-09-22T20:44:40.203Z,20.18
2018-09-22T20:47:07.934Z,20.04
2018-09-22T20:49:35.661Z,20.05
2018-09-22T20:52:03.369Z,19.89
2018-09-22T20:54:31.083Z,19.86
2018-09-22T20:56:58.810Z,19.98
2018-09-22T20:59:26.528Z,20.21
2018-09-22T21:01:54.309Z,20.03
2018-09-22T21:04:22.034Z,20.27
2018-09-22T21:06:49.742Z,19.73
2018-09-22T21:09:17.451Z,19.95
2018-09-22T21:11:45.167Z,20.14
2018-09-22T21:14:12.900Z,19.90
2018-09-22T21:16:40.602Z,19.91
2018-09-22T21:19:08.402Z,19.94
2018-09-22T21:21:36.126Z,19.95
2018-09-22T21:24:03.873Z,19.74
2018-09-22T21:26:31.615Z,19.90
2018-09-22T21:28:59.335Z,20.10
2018-09-22T21:31:27.058Z,20.20
2018-09-22T21:33:54.802Z,20.09
2018-09-22T21:36:22.513Z,20.10
2018-09-22T21:38:50.241Z,19.96
2018-09-22T21:41:17.943Z,19.88
2018-09-22T21:43:45.730Z,19.46
2018-09-22T21:46:13.437Z,19.28
2018-09-22T21:48:41.159Z,19.17
2018-09-22T21:51:08.880Z,19.35
2018-09-22T21:53:36.715Z,19.60
2018-09-22T21:56:04.466Z,19.92
2018-09-22T21:58:32.194Z,19.84
2018-09-22T22:00:59.941Z,19.45
2018-09-22T22:03:27.713Z,19.66
2018-09-22T22:05:55.476Z,19.70
2018-09-22T22:08:23.282Z,19.70
2018-09-22T22:10:51.043Z,19.83
2018-09-22T22:13:18.805Z,19.95
2018-09-22T22:15:46.608Z,19.44
2018-09-22T22:18:14.408Z,19.24
2018-09-22T22:20:42.173Z,19.44
2018-09-22T22:23:10.022Z,19.43
2018-09-22T22:25:37.927Z,19.03
2018-09-22T22:28:05.942Z,18.81
2018-09-22T22:30:33.720Z,18.83
2018-09-22T22:33:01.468Z,19.06
2018-09-22T22:35:29.233Z,18.96
2018-09-22T22:37:56.985Z,18.94
2018-09-22T22:40:24.755Z,18.95
2018-09-22T22:42:52.527Z,18.80
2018-09-22T22:45:20.336Z,19.06
2018-09-22T22:47:49.971Z,19.12
2018-09-22T22:50:20.267Z,19.06
2018-09-22T22:52:48.644Z,18.77
2018-09-22T22:55:16.384Z,18.93
2018-09-22T22:57:44.078Z,19.25
2018-09-22T23:00:11.800Z,18.58
2018-09-22T23:02:40.068Z,18.76
2018-09-22T23:05:07.790Z,18.36
2018-09-22T23:07:35.500Z,18.58
2018-09-22T23:10:03.265Z,18.59
2018-09-22T23:12:30.974Z,18.59
2018-09-22T23:14:59.672Z,18.79
2018-09-22T23:17:27.394Z,18.45
2018-09-22T23:19:55.136Z,18.82
2018-09-22T23:22:22.838Z,18.36
2018-09-22T23:24:50.578Z,18.73
2018-09-22T23:27:18.326Z,18.71
2018-09-22T23:29:46.061Z,18.30
2018-09-22T23:32:13.906Z,18.32
2018-09-22T23:34:41.707Z,18.26
2018-09-22T23:37:09.519Z,18.47
2018-09-22T23:39:37.228Z,18.51
2018-09-22T23:42:04.971Z,18.51
2018-09-22T23:44:32.689Z,18.24
2018-09-22T23:47:00.423Z,18.48
2018-09-22T23:49:28.124Z,18.08
2018-09-22T23:51:56.164Z,18.57
2018-09-22T23:54:23.955Z,18.52
2018-09-22T23:56:52.157Z,18.67
2018-09-22T23:59:20.230Z,18.13
